Aviation Digital Data Service (ADDS)

Output produced by METARs form (1950 UTC 15 October 2018)
found at http://www.aviationweather.gov/metar/data/
 
METAR text: KFAT 151853Z VRB05KT 8SM CLR 22/05 A3015 RMK AO2 SLP208 MTNS OBSC DSNT N-E-SE T02170050
Conditions at: KFAT (FRESNO , CA, US) observed 1853 UTC 15 October 2018
Temperature: 21.7°C (71°F)
Dewpoint: 5.0°C (41°F) [RH = 34%]
Pressure (altimeter): 30.15 inches Hg (1021.1 mb)
[Sea-level pressure: 1020.8 mb]
Winds: variable direction winds at 6 MPH (5 knots; 2.6 m/s)
Visibility: 8 miles (13 km)
Ceiling: at least 12,000 feet AGL
Clouds: sky clear below 12,000 feet AGL
Weather: no significant weather observed at this time

Forecast for: KFAT (FRESNO , CA, US)
Text: KFAT 151720Z 1518/1618 08008KT P6SM SKC
Forecast period: 1800 to 2100 UTC 15 October 2018
Forecast type: FROM: standard forecast or significant change
Winds: from the E (80 degrees) at 9 MPH (8 knots; 4.1 m/s)
Visibility: 6 or more miles 10+ km)
Clouds: clear skies
Weather: no significant weather forecast for this period
Text: FM152100 30005KT P6SM SKC
Forecast period: 2100 UTC 15 October 2018 to 1800 UTC 16 October 2018
Forecast type: FROM: standard forecast or significant change
Winds: from the WNW (300 degrees) at 6 MPH (5 knots; 2.6 m/s)
Visibility: 6 or more miles 10+ km)
Clouds: clear skies
Weather: no significant weather forecast for this period